RYR9RN LEZL-LPPT
Flight info
| Callsign | RYR9RN |
|---|---|
| Flight time | 0h 48m |
| Altitude | 36000 |
| Route | ONUBA N747 MINTA DCT VATZI |
| Aircraft | B738/M-SDE2E3FGHIRWXY/LB1 |
Departure
| Time | 2026-04-15 15:02 |
|---|---|
| Airport | Seville Airport (LEZL) |
Arrival
| Time | 2026-04-15 15:50 |
|---|---|
| Airport | Lisbon Humberto Delgado Airport (LPPT) |
| Time | Latitude | Longitude | Altitude | Speed | Heading |
|---|---|---|---|---|---|
| 2026-04-15 14:40 | 37.42462 | -5.89694 | 93 ft | 0 kts | 94° |
| 2026-04-15 14:53 | 37.42461 | -5.89688 | 93 ft | 2 kts | 111° |
| 2026-04-15 14:53 | 37.42449 | -5.89695 | 92 ft | 3 kts | 230° |
| 2026-04-15 14:53 | 37.42412 | -5.89710 | 95 ft | 9 kts | 158° |
| 2026-04-15 14:54 | 37.42341 | -5.89691 | 93 ft | 13 kts | 222° |
| 2026-04-15 14:54 | 37.42269 | -5.89758 | 94 ft | 13 kts | 210° |
| 2026-04-15 14:54 | 37.42205 | -5.89833 | 93 ft | 13 kts | 225° |
| 2026-04-15 14:54 | 37.42142 | -5.89913 | 93 ft | 13 kts | 223° |
| 2026-04-15 14:55 | 37.42077 | -5.89994 | 95 ft | 13 kts | 225° |
| 2026-04-15 14:55 | 37.42042 | -5.90089 | 95 ft | 11 kts | 225° |
| 2026-04-15 14:55 | 37.41982 | -5.90130 | 94 ft | 11 kts | 256° |
| 2026-04-15 14:55 | 37.41981 | -5.90221 | 94 ft | 10 kts | 271° |
| 2026-04-15 14:56 | 37.41980 | -5.90310 | 94 ft | 10 kts | 270° |
| 2026-04-15 14:56 | 37.41979 | -5.90403 | 93 ft | 11 kts | 269° |
| 2026-04-15 14:56 | 37.41981 | -5.90517 | 93 ft | 15 kts | 271° |
| 2026-04-15 14:56 | 37.41979 | -5.90662 | 92 ft | 18 kts | 270° |
| 2026-04-15 14:57 | 37.41979 | -5.90821 | 91 ft | 18 kts | 273° |
| 2026-04-15 14:57 | 37.41979 | -5.90975 | 89 ft | 17 kts | 267° |
| 2026-04-15 14:57 | 37.41975 | -5.91125 | 88 ft | 17 kts | 272° |
| 2026-04-15 14:57 | 37.41975 | -5.91218 | 88 ft | 0 kts | 265° |
| 2026-04-15 14:59 | 37.41974 | -5.91229 | 88 ft | 3 kts | 266° |
| 2026-04-15 14:59 | 37.41964 | -5.91284 | 88 ft | 9 kts | 240° |
| 2026-04-15 15:00 | 37.41954 | -5.91297 | 89 ft | 0 kts | 220° |
| 2026-04-15 15:00 | 37.41952 | -5.91299 | 89 ft | 2 kts | 220° |
| 2026-04-15 15:00 | 37.41922 | -5.91312 | 88 ft | 8 kts | 187° |
| 2026-04-15 15:01 | 37.41856 | -5.91271 | 91 ft | 15 kts | 128° |
| 2026-04-15 15:01 | 37.41793 | -5.91136 | 91 ft | 21 kts | 102° |
| 2026-04-15 15:01 | 37.41790 | -5.90874 | 93 ft | 54 kts | 89° |
| 2026-04-15 15:01 | 37.41792 | -5.90092 | 97 ft | 123 kts | 90° |
| 2026-04-15 15:02 | 37.41808 | -5.88774 | 208 ft | 170 kts | 89° |
| 2026-04-15 15:02 | 37.41779 | -5.87277 | 932 ft | 169 kts | 91° |
| 2026-04-15 15:02 | 37.41757 | -5.85803 | 1771 ft | 169 kts | 91° |
| 2026-04-15 15:02 | 37.41734 | -5.84283 | 2295 ft | 184 kts | 94° |
| 2026-04-15 15:03 | 37.41352 | -5.82623 | 2568 ft | 212 kts | 122° |
| 2026-04-15 15:03 | 37.40257 | -5.81353 | 3079 ft | 221 kts | 156° |
| 2026-04-15 15:03 | 37.38743 | -5.81064 | 3687 ft | 226 kts | 191° |
| 2026-04-15 15:03 | 37.37353 | -5.81923 | 4463 ft | 224 kts | 222° |
| 2026-04-15 15:04 | 37.36259 | -5.83328 | 5222 ft | 227 kts | 229° |
| 2026-04-15 15:04 | 37.35194 | -5.84828 | 5865 ft | 236 kts | 229° |
| 2026-04-15 15:04 | 37.34026 | -5.86451 | 6114 ft | 265 kts | 228° |
| 2026-04-15 15:04 | 37.32731 | -5.88200 | 6622 ft | 279 kts | 227° |
| 2026-04-15 15:05 | 37.31378 | -5.89988 | 7326 ft | 285 kts | 227° |
| 2026-04-15 15:05 | 37.30012 | -5.91760 | 8317 ft | 277 kts | 227° |
| 2026-04-15 15:05 | 37.28686 | -5.93459 | 9404 ft | 267 kts | 227° |
| 2026-04-15 15:05 | 37.27397 | -5.95105 | 10324 ft | 264 kts | 227° |
| 2026-04-15 15:06 | 37.24822 | -5.98395 | 11695 ft | 268 kts | 230° |
| 2026-04-15 15:06 | 37.23770 | -6.00320 | 12345 ft | 271 kts | 248° |
| 2026-04-15 15:06 | 37.23230 | -6.02658 | 12575 ft | 291 kts | 267° |
| 2026-04-15 15:07 | 37.23316 | -6.05275 | 12789 ft | 312 kts | 281° |
| 2026-04-15 15:07 | 37.23730 | -6.08044 | 12967 ft | 334 kts | 284° |
| 2026-04-15 15:07 | 37.24234 | -6.10970 | 13325 ft | 349 kts | 284° |
| 2026-04-15 15:07 | 37.24755 | -6.13971 | 13987 ft | 354 kts | 284° |
| 2026-04-15 15:08 | 37.25270 | -6.17001 | 14704 ft | 356 kts | 283° |
| 2026-04-15 15:08 | 37.25777 | -6.20061 | 15391 ft | 360 kts | 283° |
| 2026-04-15 15:08 | 37.26280 | -6.23156 | 16058 ft | 365 kts | 283° |
| 2026-04-15 15:08 | 37.26784 | -6.26295 | 16725 ft | 369 kts | 283° |
| 2026-04-15 15:09 | 37.27290 | -6.29468 | 17392 ft | 373 kts | 283° |
| 2026-04-15 15:09 | 37.27800 | -6.32684 | 18045 ft | 377 kts | 283° |
| 2026-04-15 15:09 | 37.28314 | -6.35931 | 18663 ft | 382 kts | 283° |
| 2026-04-15 15:09 | 37.28835 | -6.39216 | 19266 ft | 384 kts | 282° |
| 2026-04-15 15:10 | 37.29358 | -6.42511 | 19922 ft | 385 kts | 282° |
| 2026-04-15 15:10 | 37.29697 | -6.45844 | 20545 ft | 388 kts | 269° |
| 2026-04-15 15:10 | 37.29309 | -6.49207 | 21177 ft | 390 kts | 260° |
| 2026-04-15 15:10 | 37.28739 | -6.52542 | 21812 ft | 392 kts | 259° |
| 2026-04-15 15:11 | 37.28142 | -6.55891 | 22382 ft | 394 kts | 259° |
| 2026-04-15 15:11 | 37.27553 | -6.59225 | 23318 ft | 384 kts | 259° |
| 2026-04-15 15:11 | 37.26996 | -6.62439 | 24423 ft | 370 kts | 259° |
| 2026-04-15 15:11 | 37.26466 | -6.65544 | 25339 ft | 360 kts | 259° |
| 2026-04-15 15:12 | 37.25949 | -6.68610 | 25907 ft | 360 kts | 259° |
| 2026-04-15 15:12 | 37.25429 | -6.71708 | 26312 ft | 365 kts | 259° |
| 2026-04-15 15:12 | 37.25074 | -6.73821 | 26597 ft | 367 kts | 259° |
| 2026-04-15 15:12 | 37.24539 | -6.76966 | 27069 ft | 369 kts | 258° |
| 2026-04-15 15:13 | 37.23961 | -6.80114 | 27559 ft | 371 kts | 258° |
| 2026-04-15 15:13 | 37.23362 | -6.83268 | 28027 ft | 373 kts | 257° |
| 2026-04-15 15:13 | 37.22755 | -6.86443 | 28463 ft | 375 kts | 257° |
| 2026-04-15 15:13 | 37.22145 | -6.89634 | 28896 ft | 378 kts | 257° |
| 2026-04-15 15:14 | 37.21532 | -6.92851 | 29339 ft | 380 kts | 257° |
| 2026-04-15 15:14 | 37.20919 | -6.96081 | 29765 ft | 382 kts | 257° |
| 2026-04-15 15:14 | 37.20302 | -6.99333 | 30183 ft | 384 kts | 257° |
| 2026-04-15 15:14 | 37.19683 | -7.02597 | 30543 ft | 386 kts | 257° |
| 2026-04-15 15:15 | 37.19058 | -7.05875 | 30879 ft | 387 kts | 257° |
| 2026-04-15 15:15 | 37.18430 | -7.09164 | 31200 ft | 389 kts | 257° |
| 2026-04-15 15:15 | 37.17165 | -7.15769 | 31196 ft | 387 kts | 257° |
| 2026-04-15 15:16 | 37.15920 | -7.22287 | 31219 ft | 385 kts | 257° |
| 2026-04-15 15:16 | 37.14694 | -7.28830 | 31217 ft | 386 kts | 257° |
| 2026-04-15 15:17 | 37.13599 | -7.35423 | 31206 ft | 388 kts | 266° |
| 2026-04-15 15:17 | 37.14122 | -7.42098 | 31210 ft | 391 kts | 285° |
| 2026-04-15 15:18 | 37.16088 | -7.48464 | 31211 ft | 392 kts | 290° |
| 2026-04-15 15:18 | 37.18197 | -7.54764 | 31216 ft | 392 kts | 290° |
| 2026-04-15 15:19 | 37.20278 | -7.61075 | 31216 ft | 391 kts | 290° |
| 2026-04-15 15:19 | 37.22325 | -7.67384 | 31215 ft | 390 kts | 290° |
| 2026-04-15 15:20 | 37.24355 | -7.73690 | 31220 ft | 389 kts | 290° |
| 2026-04-15 15:20 | 37.26375 | -7.79988 | 31220 ft | 389 kts | 290° |
| 2026-04-15 15:21 | 37.28389 | -7.86281 | 31217 ft | 388 kts | 290° |
| 2026-04-15 15:21 | 37.30394 | -7.92559 | 31223 ft | 387 kts | 290° |
| 2026-04-15 15:22 | 37.32410 | -7.98882 | 31226 ft | 387 kts | 290° |
| 2026-04-15 15:22 | 37.34408 | -8.05166 | 31223 ft | 387 kts | 289° |
| 2026-04-15 15:23 | 37.36404 | -8.11455 | 31231 ft | 387 kts | 289° |
| 2026-04-15 15:23 | 37.38383 | -8.17708 | 31209 ft | 388 kts | 289° |
| 2026-04-15 15:24 | 37.39397 | -8.20917 | 30802 ft | 390 kts | 289° |
| 2026-04-15 15:24 | 37.40396 | -8.24079 | 30284 ft | 389 kts | 290° |
| 2026-04-15 15:24 | 37.41394 | -8.27243 | 29700 ft | 389 kts | 290° |
| 2026-04-15 15:24 | 37.42389 | -8.30403 | 29121 ft | 389 kts | 290° |
| 2026-04-15 15:25 | 37.43385 | -8.33566 | 28502 ft | 389 kts | 290° |
| 2026-04-15 15:25 | 37.44367 | -8.36691 | 27902 ft | 390 kts | 290° |
| 2026-04-15 15:25 | 37.45364 | -8.39866 | 27279 ft | 391 kts | 290° |
| 2026-04-15 15:25 | 37.46373 | -8.43083 | 26790 ft | 388 kts | 290° |
| 2026-04-15 15:26 | 37.47361 | -8.46237 | 26313 ft | 386 kts | 290° |
| 2026-04-15 15:26 | 37.48329 | -8.49331 | 25855 ft | 384 kts | 290° |
| 2026-04-15 15:26 | 37.49317 | -8.52492 | 25376 ft | 382 kts | 290° |
| 2026-04-15 15:26 | 37.50274 | -8.55557 | 24912 ft | 381 kts | 290° |
| 2026-04-15 15:27 | 37.51239 | -8.58653 | 24448 ft | 379 kts | 290° |
| 2026-04-15 15:27 | 37.52200 | -8.61741 | 23968 ft | 378 kts | 291° |
| 2026-04-15 15:27 | 37.53158 | -8.64820 | 23439 ft | 377 kts | 291° |
| 2026-04-15 15:27 | 37.54111 | -8.67889 | 22937 ft | 375 kts | 291° |
| 2026-04-15 15:28 | 37.55056 | -8.70939 | 22471 ft | 372 kts | 291° |
| 2026-04-15 15:28 | 37.55992 | -8.73962 | 21998 ft | 369 kts | 291° |
| 2026-04-15 15:28 | 37.56924 | -8.76968 | 21551 ft | 367 kts | 291° |
| 2026-04-15 15:28 | 37.57848 | -8.79953 | 21107 ft | 364 kts | 291° |
| 2026-04-15 15:29 | 37.58796 | -8.82903 | 20658 ft | 363 kts | 296° |
| 2026-04-15 15:29 | 37.60292 | -8.85444 | 20209 ft | 363 kts | 315° |
| 2026-04-15 15:29 | 37.62334 | -8.87304 | 19782 ft | 364 kts | 332° |
| 2026-04-15 15:29 | 37.64699 | -8.88442 | 19366 ft | 364 kts | 340° |
| 2026-04-15 15:30 | 37.67111 | -8.89407 | 18903 ft | 363 kts | 341° |
| 2026-04-15 15:30 | 37.69522 | -8.90336 | 18450 ft | 362 kts | 341° |
| 2026-04-15 15:30 | 37.71926 | -8.91269 | 17967 ft | 360 kts | 341° |
| 2026-04-15 15:30 | 37.74342 | -8.92221 | 17506 ft | 358 kts | 340° |
| 2026-04-15 15:31 | 37.76674 | -8.93153 | 17076 ft | 355 kts | 340° |
| 2026-04-15 15:31 | 37.79019 | -8.94101 | 16653 ft | 353 kts | 340° |
| 2026-04-15 15:31 | 37.81347 | -8.95048 | 16229 ft | 350 kts | 340° |
| 2026-04-15 15:31 | 37.83659 | -8.95992 | 15803 ft | 348 kts | 340° |
| 2026-04-15 15:32 | 37.85959 | -8.96932 | 15387 ft | 346 kts | 340° |
| 2026-04-15 15:32 | 37.88242 | -8.97867 | 14974 ft | 344 kts | 340° |
| 2026-04-15 15:32 | 37.90513 | -8.98799 | 14565 ft | 343 kts | 340° |
| 2026-04-15 15:32 | 37.92769 | -8.99725 | 14282 ft | 336 kts | 340° |
| 2026-04-15 15:33 | 37.94968 | -9.00627 | 14099 ft | 328 kts | 340° |
| 2026-04-15 15:33 | 37.97110 | -9.01504 | 13949 ft | 318 kts | 340° |
| 2026-04-15 15:33 | 37.99187 | -9.02354 | 13802 ft | 309 kts | 340° |
| 2026-04-15 15:33 | 38.01214 | -9.03193 | 13498 ft | 306 kts | 340° |
| 2026-04-15 15:34 | 38.03228 | -9.04042 | 13169 ft | 304 kts | 340° |
| 2026-04-15 15:34 | 38.05226 | -9.04889 | 12841 ft | 302 kts | 340° |
| 2026-04-15 15:34 | 38.07212 | -9.05732 | 12515 ft | 300 kts | 340° |
| 2026-04-15 15:34 | 38.09188 | -9.06570 | 12188 ft | 298 kts | 340° |
| 2026-04-15 15:35 | 38.11151 | -9.07400 | 11867 ft | 297 kts | 340° |
| 2026-04-15 15:35 | 38.13091 | -9.08220 | 11716 ft | 289 kts | 340° |
| 2026-04-15 15:35 | 38.14976 | -9.09015 | 11569 ft | 282 kts | 340° |
| 2026-04-15 15:35 | 38.16891 | -9.09356 | 11426 ft | 278 kts | 5° |
| 2026-04-15 15:36 | 38.18719 | -9.08610 | 11202 ft | 279 kts | 29° |
| 2026-04-15 15:36 | 38.20219 | -9.07005 | 10945 ft | 279 kts | 46° |
| 2026-04-15 15:36 | 38.21482 | -9.05173 | 10670 ft | 279 kts | 48° |
| 2026-04-15 15:36 | 38.22756 | -9.03269 | 10391 ft | 279 kts | 48° |
| 2026-04-15 15:37 | 38.24013 | -9.01399 | 10117 ft | 278 kts | 48° |
| 2026-04-15 15:37 | 38.25278 | -8.99540 | 9802 ft | 277 kts | 48° |
| 2026-04-15 15:37 | 38.26543 | -8.97692 | 9511 ft | 276 kts | 48° |
| 2026-04-15 15:37 | 38.27787 | -8.95880 | 9235 ft | 275 kts | 47° |
| 2026-04-15 15:38 | 38.29059 | -8.94027 | 8962 ft | 274 kts | 47° |
| 2026-04-15 15:38 | 38.30446 | -8.92406 | 8656 ft | 270 kts | 27° |
| 2026-04-15 15:38 | 38.32212 | -8.91769 | 8405 ft | 262 kts | 358° |
| 2026-04-15 15:38 | 38.33967 | -8.92206 | 8148 ft | 256 kts | 334° |
| 2026-04-15 15:39 | 38.35437 | -8.93432 | 7895 ft | 252 kts | 317° |
| 2026-04-15 15:39 | 38.36709 | -8.94952 | 7628 ft | 250 kts | 314° |
| 2026-04-15 15:39 | 38.37940 | -8.96491 | 7480 ft | 244 kts | 314° |
| 2026-04-15 15:39 | 38.39028 | -8.98112 | 7327 ft | 241 kts | 296° |
| 2026-04-15 15:40 | 38.39419 | -9.00139 | 7290 ft | 242 kts | 269° |
| 2026-04-15 15:40 | 38.39041 | -9.02207 | 7276 ft | 241 kts | 244° |
| 2026-04-15 15:40 | 38.38173 | -9.04051 | 7277 ft | 239 kts | 237° |
| 2026-04-15 15:40 | 38.37237 | -9.05805 | 7275 ft | 239 kts | 237° |
| 2026-04-15 15:41 | 38.36302 | -9.07558 | 7271 ft | 239 kts | 237° |
| 2026-04-15 15:41 | 38.35372 | -9.09318 | 7272 ft | 239 kts | 237° |
| 2026-04-15 15:41 | 38.34558 | -9.11152 | 7265 ft | 238 kts | 253° |
| 2026-04-15 15:41 | 38.34479 | -9.13223 | 7275 ft | 236 kts | 284° |
| 2026-04-15 15:42 | 38.35228 | -9.15078 | 7116 ft | 240 kts | 313° |
| 2026-04-15 15:42 | 38.36610 | -9.16246 | 6862 ft | 242 kts | 339° |
| 2026-04-15 15:42 | 38.38242 | -9.16795 | 6590 ft | 243 kts | 347° |
| 2026-04-15 15:42 | 38.39908 | -9.17197 | 6312 ft | 243 kts | 348° |
| 2026-04-15 15:43 | 38.41569 | -9.17581 | 6082 ft | 242 kts | 348° |
| 2026-04-15 15:43 | 38.43219 | -9.17972 | 5829 ft | 241 kts | 348° |
| 2026-04-15 15:43 | 38.44867 | -9.18373 | 5668 ft | 240 kts | 348° |
| 2026-04-15 15:43 | 38.46506 | -9.18781 | 5468 ft | 240 kts | 348° |
| 2026-04-15 15:44 | 38.48139 | -9.19192 | 5341 ft | 239 kts | 348° |
| 2026-04-15 15:44 | 38.49762 | -9.19601 | 5106 ft | 237 kts | 348° |
| 2026-04-15 15:44 | 38.51377 | -9.20011 | 4869 ft | 236 kts | 348° |
| 2026-04-15 15:44 | 38.52980 | -9.20420 | 4656 ft | 234 kts | 347° |
| 2026-04-15 15:45 | 38.54506 | -9.21060 | 4499 ft | 227 kts | 337° |
| 2026-04-15 15:45 | 38.55915 | -9.21830 | 4453 ft | 213 kts | 336° |
| 2026-04-15 15:45 | 38.57241 | -9.22560 | 4315 ft | 202 kts | 336° |
| 2026-04-15 15:45 | 38.58505 | -9.23200 | 4190 ft | 190 kts | 347° |
| 2026-04-15 15:46 | 38.59795 | -9.23021 | 3941 ft | 188 kts | 19° |
| 2026-04-15 15:46 | 38.61045 | -9.22531 | 3670 ft | 187 kts | 15° |
| 2026-04-15 15:46 | 38.62281 | -9.22038 | 3430 ft | 185 kts | 19° |
| 2026-04-15 15:46 | 38.63487 | -9.21447 | 3175 ft | 187 kts | 21° |
| 2026-04-15 15:47 | 38.64685 | -9.20812 | 2920 ft | 185 kts | 21° |
| 2026-04-15 15:47 | 38.65868 | -9.20178 | 2669 ft | 183 kts | 21° |
| 2026-04-15 15:47 | 38.67037 | -9.19550 | 2423 ft | 181 kts | 21° |
| 2026-04-15 15:47 | 38.68208 | -9.18921 | 2186 ft | 183 kts | 21° |
| 2026-04-15 15:48 | 38.69380 | -9.18291 | 1912 ft | 179 kts | 21° |
| 2026-04-15 15:48 | 38.70491 | -9.17693 | 1710 ft | 167 kts | 20° |
| 2026-04-15 15:48 | 38.71523 | -9.17140 | 1464 ft | 156 kts | 20° |
| 2026-04-15 15:48 | 38.72495 | -9.16617 | 1257 ft | 149 kts | 20° |
| 2026-04-15 15:49 | 38.73453 | -9.16099 | 1041 ft | 151 kts | 20° |
| 2026-04-15 15:49 | 38.74431 | -9.15567 | 882 ft | 154 kts | 19° |
| 2026-04-15 15:49 | 38.75425 | -9.15035 | 652 ft | 155 kts | 20° |
| 2026-04-15 15:49 | 38.76416 | -9.14510 | 427 ft | 154 kts | 20° |
| 2026-04-15 15:50 | 38.77369 | -9.14005 | 361 ft | 127 kts | 24° |
| 2026-04-15 15:50 | 38.77977 | -9.13675 | 366 ft | 65 kts | 22° |
| 2026-04-15 15:50 | 38.78225 | -9.13534 | 369 ft | 16 kts | 41° |
| 2026-04-15 15:50 | 38.78167 | -9.13455 | 366 ft | 16 kts | 164° |
| 2026-04-15 15:51 | 38.78052 | -9.13427 | 362 ft | 18 kts | 173° |
| 2026-04-15 15:51 | 38.77936 | -9.13469 | 355 ft | 17 kts | 205° |
| 2026-04-15 15:51 | 38.77862 | -9.13509 | 357 ft | 17 kts | 201° |
| 2026-04-15 15:51 | 38.77747 | -9.13570 | 356 ft | 19 kts | 202° |
| 2026-04-15 15:52 | 38.77621 | -9.13639 | 362 ft | 20 kts | 201° |
| 2026-04-15 15:52 | 38.77493 | -9.13702 | 357 ft | 21 kts | 195° |
| 2026-04-15 15:52 | 38.77351 | -9.13782 | 355 ft | 24 kts | 207° |
| 2026-04-15 15:52 | 38.77192 | -9.13867 | 360 ft | 24 kts | 201° |
| 2026-04-15 15:53 | 38.77035 | -9.13884 | 357 ft | 23 kts | 164° |
| 2026-04-15 15:53 | 38.76881 | -9.13842 | 346 ft | 22 kts | 168° |
| 2026-04-15 15:53 | 38.76744 | -9.13806 | 344 ft | 11 kts | 167° |
| 2026-04-15 15:53 | 38.76669 | -9.13781 | 350 ft | 11 kts | 168° |
| 2026-04-15 15:54 | 38.76617 | -9.13724 | 347 ft | 11 kts | 94° |
| 2026-04-15 15:54 | 38.76579 | -9.13663 | 346 ft | 10 kts | 172° |
| 2026-04-15 15:54 | 38.76510 | -9.13648 | 347 ft | 9 kts | 168° |
| 2026-04-15 15:54 | 38.76476 | -9.13639 | 350 ft | 0 kts | 167° |